Time;durP1;ratioP1;P1;durP2;ratioP2;P2;SDS_P1;SDS_P2;PMS_P1;PMS_P2;Temp;Humidity;BMP_temperature;BMP_pressure;BME280_temperature;BME280_humidity;BME280_pressure;Samples;Min_cycle;Max_cycle;Signal;HPM_P1;HPM_P2
2022/06/03 00:00:33;;;;;;;;;;;11.90;99.90;;;;;;5119939;28;19908;-75
2022/06/03 00:03:17;;;;;;;;;;;12.00;99.90;;;;;;5120103;28;19912;-76
2022/06/03 00:06:05;;;;;;;;;;;12.10;99.90;;;;;;5119900;27;19907;-75
2022/06/03 00:08:50;;;;;;;;;;;12.10;99.90;;;;;;5120028;28;19908;-76
2022/06/03 00:11:16;;;;;;;;;;;12.20;99.90;;;;;;5116653;28;19908;-77
2022/06/03 00:13:43;;;;;;;;;;;12.40;99.90;;;;;;5116478;28;19952;-76
2022/06/03 00:16:17;;;;;;;;;;;12.50;99.90;;;;;;5116666;28;19927;-76
2022/06/03 00:18:50;;;;;;;;;;;12.60;99.90;;;;;;5116738;28;20021;-76
2022/06/03 00:21:36;;;;;;;;;;;12.80;99.90;;;;;;5116696;28;19914;-76
2022/06/03 00:24:09;;;;;;;;;;;12.80;99.90;;;;;;5116239;28;19908;-76
2022/06/03 00:26:48;;;;;;;;;;;12.80;99.90;;;;;;5116214;28;20269;-75
2022/06/03 00:29:41;;;;;;;;;;;12.90;99.90;;;;;;5116089;28;19907;-76
2022/06/03 00:32:14;;;;;;;;;;;12.90;99.90;;;;;;5113196;28;19908;-76
2022/06/03 00:34:43;;;;;;;;;;;12.90;99.90;;;;;;5116308;28;19962;-76
2022/06/03 00:37:10;;;;;;;;;;;13.00;99.90;;;;;;5116094;28;19961;-75
2022/06/03 00:39:37;;;;;;;;;;;13.00;99.90;;;;;;5115908;28;19991;-75
2022/06/03 00:42:12;;;;;;;;;;;13.10;99.90;;;;;;5115729;28;19908;-76
2022/06/03 00:44:39;;;;;;;;;;;13.00;99.90;;;;;;5115874;28;20354;-76
2022/06/03 00:47:24;;;;;;;;;;;13.00;99.90;;;;;;5115967;28;19931;-76
2022/06/03 00:50:09;;;;;;;;;;;13.00;99.90;;;;;;5115735;28;20002;-75
2022/06/03 00:52:43;;;;;;;;;;;13.00;99.90;;;;;;5115644;28;20015;-76
2022/06/03 00:55:10;;;;;;;;;;;13.00;99.90;;;;;;5115607;28;19908;-75
2022/06/03 00:58:12;;;;;;;;;;;13.00;99.90;;;;;;5115402;28;20012;-76
2022/06/03 01:00:53;;;;;;;;;;;13.00;99.90;;;;;;5035844;28;20375;-75
2022/06/03 01:03:23;;;;;;;;;;;13.00;99.90;;;;;;5109396;28;20428;-76
2022/06/03 01:06:02;;;;;;;;;;;13.10;99.90;;;;;;5115376;28;19919;-76
2022/06/03 01:08:32;;;;;;;;;;;13.00;99.90;;;;;;5115623;28;19911;-76
2022/06/03 01:10:59;;;;;;;;;;;13.10;99.90;;;;;;5115682;28;19992;-76
2022/06/03 01:13:43;;;;;;;;;;;13.20;99.90;;;;;;5115490;28;19930;-75
2022/06/03 01:16:13;;;;;;;;;;;13.30;99.90;;;;;;5115409;28;20006;-75
2022/06/03 01:18:58;;;;;;;;;;;13.40;99.90;;;;;;5115356;28;19916;-73
2022/06/03 01:21:33;;;;;;;;;;;13.30;99.90;;;;;;5115519;28;20275;-74
2022/06/03 01:24:18;;;;;;;;;;;13.50;99.90;;;;;;5114211;28;19908;-74
2022/06/03 01:26:57;;;;;;;;;;;13.60;99.90;;;;;;5115198;28;19907;-75
2022/06/03 01:29:33;;;;;;;;;;;13.60;99.90;;;;;;5115122;28;19954;-75
2022/06/03 01:32:08;;;;;;;;;;;13.60;99.90;;;;;;5115011;28;19947;-74
2022/06/03 01:34:43;;;;;;;;;;;13.60;99.90;;;;;;5115007;28;19908;-74
2022/06/03 01:37:28;;;;;;;;;;;13.60;99.90;;;;;;5114966;28;20458;-74
2022/06/03 01:40:12;;;;;;;;;;;13.70;99.90;;;;;;5114794;28;19912;-74
2022/06/03 01:42:58;;;;;;;;;;;13.70;99.90;;;;;;5115123;28;19998;-75
2022/06/03 01:45:44;;;;;;;;;;;13.80;99.90;;;;;;5083250;28;19912;-74
2022/06/03 01:48:19;;;;;;;;;;;13.70;99.90;;;;;;5114865;28;19908;-74
2022/06/03 01:51:09;;;;;;;;;;;13.80;99.90;;;;;;5114948;28;19961;-75
2022/06/03 01:53:35;;;;;;;;;;;13.80;99.90;;;;;;5114009;28;20262;-74
2022/06/03 01:56:14;;;;;;;;;;;13.80;99.90;;;;;;5114771;28;19912;-75
2022/06/03 01:58:41;;;;;;;;;;;13.80;99.90;;;;;;5114507;28;20330;-74
2022/06/03 02:01:07;;;;;;;;;;;13.80;99.90;;;;;;5114530;28;19915;-74
2022/06/03 02:03:49;;;;;;;;;;;13.90;99.90;;;;;;5114428;28;19908;-74
2022/06/03 02:06:27;;;;;;;;;;;13.90;99.90;;;;;;5114417;28;19996;-74
2022/06/03 02:09:15;;;;;;;;;;;14.00;99.90;;;;;;5114221;28;19953;-75
2022/06/03 02:11:58;;;;;;;;;;;14.10;99.90;;;;;;5114245;28;20272;-75
2022/06/03 02:14:44;;;;;;;;;;;14.20;99.90;;;;;;5113966;28;19907;-75
2022/06/03 02:17:19;;;;;;;;;;;14.30;99.90;;;;;;5114426;28;19951;-75
2022/06/03 02:20:00;;;;;;;;;;;14.20;99.90;;;;;;5114167;28;19912;-75
2022/06/03 02:22:32;;;;;;;;;;;14.10;99.90;;;;;;5114455;28;19919;-74
2022/06/03 02:25:17;;;;;;;;;;;14.10;99.90;;;;;;5114305;28;19911;-75
2022/06/03 02:27:47;;;;;;;;;;;14.00;99.90;;;;;;5113888;28;19907;-74
2022/06/03 02:30:26;;;;;;;;;;;14.00;99.90;;;;;;5114336;28;20278;-74
2022/06/03 02:33:10;;;;;;;;;;;14.00;99.90;;;;;;5114020;28;19935;-74
2022/06/03 02:35:55;;;;;;;;;;;13.90;99.90;;;;;;5113518;28;19908;-75
2022/06/03 02:38:43;;;;;;;;;;;13.80;99.90;;;;;;5114127;28;19958;-74
2022/06/03 02:41:12;;;;;;;;;;;13.70;99.90;;;;;;5113944;28;20002;-75
2022/06/03 02:43:42;;;;;;;;;;;13.70;99.90;;;;;;5113645;28;20322;-74
2022/06/03 02:46:09;;;;;;;;;;;13.90;99.90;;;;;;5113942;28;20223;-75
2022/06/03 02:48:54;;;;;;;;;;;13.90;99.90;;;;;;5113843;28;19908;-74
2022/06/03 02:51:40;;;;;;;;;;;14.00;99.90;;;;;;5080332;28;19912;-74
2022/06/03 02:54:14;;;;;;;;;;;14.00;99.90;;;;;;5088637;28;20019;-74
2022/06/03 02:56:47;;;;;;;;;;;14.00;99.90;;;;;;5092997;28;19908;-75
2022/06/03 02:59:31;;;;;;;;;;;13.90;99.90;;;;;;5104393;28;19920;-75
2022/06/03 03:02:25;;;;;;;;;;;13.90;99.90;;;;;;5113549;28;19908;-75
2022/06/03 03:05:13;;;;;;;;;;;14.00;99.90;;;;;;5113583;28;19961;-74
2022/06/03 03:07:57;;;;;;;;;;;14.00;99.90;;;;;;5113475;28;20327;-76
2022/06/03 03:10:50;;;;;;;;;;;14.10;99.90;;;;;;5113597;28;19908;-75
2022/06/03 03:13:18;;;;;;;;;;;14.10;99.90;;;;;;5113528;28;19929;-75
2022/06/03 03:15:51;;;;;;;;;;;14.20;99.90;;;;;;5113334;28;19907;-75
2022/06/03 03:18:36;;;;;;;;;;;14.20;99.90;;;;;;5113373;28;20082;-74
2022/06/03 03:21:12;;;;;;;;;;;14.20;99.90;;;;;;5113284;28;19914;-74
2022/06/03 03:23:44;;;;;;;;;;;14.20;99.90;;;;;;5113328;28;19908;-75
2022/06/03 03:26:29;;;;;;;;;;;14.10;99.90;;;;;;5113279;28;19953;-75
2022/06/03 03:28:56;;;;;;;;;;;14.10;99.90;;;;;;5113362;28;19961;-74
2022/06/03 03:31:35;;;;;;;;;;;14.10;99.90;;;;;;5113319;28;19915;-75
2022/06/03 03:34:05;;;;;;;;;;;14.10;99.90;;;;;;5113374;28;19960;-75
2022/06/03 03:36:34;;;;;;;;;;;14.10;99.90;;;;;;5113355;28;19908;-75
2022/06/03 03:39:07;;;;;;;;;;;14.20;99.90;;;;;;5113613;28;19963;-75
2022/06/03 03:41:49;;;;;;;;;;;14.20;99.90;;;;;;5113089;28;19909;-75
2022/06/03 03:44:34;;;;;;;;;;;14.20;99.90;;;;;;5113135;28;20003;-76
2022/06/03 03:47:00;;;;;;;;;;;14.10;99.90;;;;;;5114966;28;19907;-75
2022/06/03 03:49:50;;;;;;;;;;;14.20;99.90;;;;;;5117163;28;19923;-74
2022/06/03 03:52:26;;;;;;;;;;;14.20;99.90;;;;;;5108641;28;20368;-76
2022/06/03 03:55:06;;;;;;;;;;;14.10;99.90;;;;;;5117110;28;19987;-74
2022/06/03 03:57:39;;;;;;;;;;;14.10;99.90;;;;;;5116794;28;20400;-76
2022/06/03 04:00:05;;;;;;;;;;;14.10;99.90;;;;;;5116663;28;20382;-75
2022/06/03 04:02:43;;;;;;;;;;;14.00;99.90;;;;;;5116712;28;19918;-75
2022/06/03 04:05:28;;;;;;;;;;;14.00;99.90;;;;;;5116955;28;19980;-75
2022/06/03 04:08:13;;;;;;;;;;;14.00;99.90;;;;;;5115502;28;19999;-74
2022/06/03 04:10:43;;;;;;;;;;;14.00;99.90;;;;;;5116843;28;19908;-74
2022/06/03 04:13:18;;;;;;;;;;;14.00;99.90;;;;;;5116651;28;19916;-73
2022/06/03 04:15:45;;;;;;;;;;;14.00;99.90;;;;;;5116434;28;19914;-74
2022/06/03 04:18:30;;;;;;;;;;;14.10;99.90;;;;;;5116544;28;19985;-73
2022/06/03 04:21:06;;;;;;;;;;;14.10;99.90;;;;;;5116652;28;19922;-74
2022/06/03 04:23:50;;;;;;;;;;;14.00;99.90;;;;;;5116354;28;19908;-74
2022/06/03 04:26:23;;;;;;;;;;;14.10;99.90;;;;;;5116637;28;19915;-75
2022/06/03 04:29:05;;;;;;;;;;;13.90;99.90;;;;;;5116261;28;19912;-74
2022/06/03 04:31:44;;;;;;;;;;;13.90;99.90;;;;;;5116068;28;19915;-73
2022/06/03 04:34:14;;;;;;;;;;;13.90;99.90;;;;;;5116231;28;19930;-74
2022/06/03 04:36:49;;;;;;;;;;;14.00;99.90;;;;;;5116323;28;19908;-74
2022/06/03 04:39:34;;;;;;;;;;;14.00;99.90;;;;;;5116017;28;20014;-74
2022/06/03 04:42:10;;;;;;;;;;;14.00;99.90;;;;;;5116150;28;20281;-74
2022/06/03 04:44:55;;;;;;;;;;;13.90;99.90;;;;;;5116000;28;19908;-74
2022/06/03 04:47:28;;;;;;;;;;;14.00;99.90;;;;;;5116090;28;19915;-74
2022/06/03 04:50:10;;;;;;;;;;;14.00;99.90;;;;;;5115948;28;19908;-73
2022/06/03 04:53:15;;;;;;;;;;;14.00;99.90;;;;;;5115840;28;19927;-73
2022/06/03 04:55:41;;;;;;;;;;;14.00;99.90;;;;;;5052951;28;19913;-73
2022/06/03 04:58:26;;;;;;;;;;;13.90;99.90;;;;;;5052692;28;19912;-73
2022/06/03 05:01:10;;;;;;;;;;;13.90;99.90;;;;;;5090720;28;19953;-73
2022/06/03 05:03:40;;;;;;;;;;;13.80;99.90;;;;;;5115573;28;19915;-73
2022/06/03 05:06:25;;;;;;;;;;;13.80;99.90;;;;;;5114459;28;19931;-74
2022/06/03 05:09:10;;;;;;;;;;;13.80;99.90;;;;;;5115653;28;19908;-73
2022/06/03 05:11:40;;;;;;;;;;;13.80;99.90;;;;;;5114933;28;19907;-74
2022/06/03 05:14:27;;;;;;;;;;;13.70;99.90;;;;;;5115278;28;19907;-73
2022/06/03 05:17:09;;;;;;;;;;;13.70;99.90;;;;;;5115433;28;19915;-73
2022/06/03 05:20:08;;;;;;;;;;;13.80;99.90;;;;;;5114899;28;19915;-74
2022/06/03 05:22:43;;;;;;;;;;;13.70;99.90;;;;;;5080777;28;20290;-73
2022/06/03 05:25:10;;;;;;;;;;;13.70;99.90;;;;;;5115262;28;19908;-74
2022/06/03 05:27:40;;;;;;;;;;;13.60;99.90;;;;;;5114533;28;19908;-75
2022/06/03 05:30:15;;;;;;;;;;;13.60;99.90;;;;;;5115007;28;19908;-74
2022/06/03 05:32:42;;;;;;;;;;;13.50;99.90;;;;;;5114765;28;19907;-74
2022/06/03 05:35:44;;;;;;;;;;;13.50;99.90;;;;;;5114902;28;20377;-73
2022/06/03 05:38:40;;;;;;;;;;;13.50;99.90;;;;;;5052107;28;19917;-73
2022/06/03 05:42:23;;;;;;;;;;;13.50;99.90;;;;;;5114813;28;19915;-74
2022/06/03 05:44:10;;;;;;;;;;;13.50;99.90;;;;;;5114644;28;19950;-74
2022/06/03 05:46:37;;;;;;;;;;;13.40;99.90;;;;;;5114849;28;19908;-74
2022/06/03 05:49:20;;;;;;;;;;;13.40;99.90;;;;;;5114705;28;19908;-73
2022/06/03 05:51:51;;;;;;;;;;;13.40;99.90;;;;;;5114373;28;19912;-75
2022/06/03 05:54:35;;;;;;;;;;;13.40;99.90;;;;;;5114710;28;19988;-74
2022/06/03 05:57:28;;;;;;;;;;;13.40;99.90;;;;;;5114767;28;19915;-73
2022/06/03 06:00:13;;;;;;;;;;;13.40;99.90;;;;;;5111320;28;19969;-74
2022/06/03 06:02:57;;;;;;;;;;;13.40;99.90;;;;;;5114349;28;19956;-75
2022/06/03 06:06:02;;;;;;;;;;;13.40;99.90;;;;;;5114400;28;20316;-74
2022/06/03 06:08:49;;;;;;;;;;;13.40;99.90;;;;;;5051379;28;19913;-73
2022/06/03 06:11:16;;;;;;;;;;;13.30;99.90;;;;;;5051483;28;19909;-73
2022/06/03 06:13:46;;;;;;;;;;;13.40;99.90;;;;;;5089785;28;19908;-73
2022/06/03 06:16:15;;;;;;;;;;;13.30;99.90;;;;;;5114284;28;19915;-73
2022/06/03 06:19:01;;;;;;;;;;;13.30;99.90;;;;;;5114219;28;19950;-73
2022/06/03 06:21:33;;;;;;;;;;;13.30;99.90;;;;;;5114238;28;19908;-74
2022/06/03 06:24:12;;;;;;;;;;;13.30;99.90;;;;;;5114111;28;19908;-73
2022/06/03 06:26:45;;;;;;;;;;;13.20;99.90;;;;;;5114160;28;19912;-73
2022/06/03 06:29:26;;;;;;;;;;;13.30;99.90;;;;;;5113855;28;19908;-73
2022/06/03 06:32:08;;;;;;;;;;;13.30;99.90;;;;;;5113670;28;20270;-73
2022/06/03 06:34:38;;;;;;;;;;;13.30;99.90;;;;;;5114029;28;19960;-73
2022/06/03 06:37:05;;;;;;;;;;;13.30;99.90;;;;;;5114084;28;20004;-75
2022/06/03 06:39:31;;;;;;;;;;;13.20;99.90;;;;;;5113681;28;19916;-73
2022/06/03 06:41:58;;;;;;;;;;;13.10;99.90;;;;;;5113861;28;19935;-73
2022/06/03 06:44:25;;;;;;;;;;;12.90;99.90;;;;;;5113682;28;19943;-72
2022/06/03 06:46:58;;;;;;;;;;;12.80;99.90;;;;;;5113910;28;20342;-73
2022/06/03 06:49:36;;;;;;;;;;;12.70;99.90;;;;;;5113754;28;20014;-74
2022/06/03 06:52:06;;;;;;;;;;;12.60;99.90;;;;;;5111169;28;19920;-73
2022/06/03 06:54:48;;;;;;;;;;;12.50;99.90;;;;;;5111519;28;19919;-74
2022/06/03 06:57:18;;;;;;;;;;;12.50;99.90;;;;;;5111265;28;19908;-74
2022/06/03 06:59:54;;;;;;;;;;;12.40;99.90;;;;;;5111132;28;19958;-74
2022/06/03 07:02:21;;;;;;;;;;;12.30;99.90;;;;;;5111454;28;19908;-75
2022/06/03 07:05:08;;;;;;;;;;;12.20;99.90;;;;;;5111231;28;19919;-74
2022/06/03 07:07:48;;;;;;;;;;;12.10;99.90;;;;;;5111184;28;19916;-75
2022/06/03 07:10:29;;;;;;;;;;;12.00;99.90;;;;;;5111318;28;19919;-75
2022/06/03 07:13:08;;;;;;;;;;;11.90;99.90;;;;;;5111278;28;20391;-75
2022/06/03 07:15:44;;;;;;;;;;;11.90;99.90;;;;;;5111155;28;19955;-75
2022/06/03 07:21:27;;;;;;;;;;;11.80;99.90;;;;;;5113352;28;19916;-75
2022/06/03 07:24:01;;;;;;;;;;;11.80;99.90;;;;;;5115370;28;19930;-76
2022/06/03 07:26:38;;;;;;;;;;;11.80;99.90;;;;;;5115393;28;20316;-75
2022/06/03 07:29:20;;;;;;;;;;;11.80;99.90;;;;;;5115233;28;20112;-73
2022/06/03 07:31:47;;;;;;;;;;;11.80;99.90;;;;;;5114912;28;20622;-75
2022/06/03 07:34:25;;;;;;;;;;;11.80;99.90;;;;;;5115399;28;19908;-75
2022/06/03 07:36:55;;;;;;;;;;;11.90;99.90;;;;;;5115120;28;19953;-75
2022/06/03 07:39:24;;;;;;;;;;;11.90;99.90;;;;;;5115005;28;19915;-75
2022/06/03 07:41:54;;;;;;;;;;;11.90;99.90;;;;;;5114844;28;19911;-74
2022/06/03 07:44:34;;;;;;;;;;;11.90;99.90;;;;;;5114559;28;19919;-74
2022/06/03 07:47:03;;;;;;;;;;;11.90;99.90;;;;;;5114952;28;19994;-74
2022/06/03 07:49:31;;;;;;;;;;;11.80;99.90;;;;;;5113355;28;19915;-74
2022/06/03 07:52:03;;;;;;;;;;;11.80;99.90;;;;;;5114693;28;19911;-74
2022/06/03 07:54:37;;;;;;;;;;;11.70;99.90;;;;;;5114955;28;20389;-74
2022/06/03 07:57:08;;;;;;;;;;;11.60;99.90;;;;;;5114503;28;19912;-74
2022/06/03 07:59:36;;;;;;;;;;;11.60;99.90;;;;;;5114593;28;20366;-74
2022/06/03 08:02:05;;;;;;;;;;;11.60;99.90;;;;;;5114740;28;19951;-74
2022/06/03 08:04:36;;;;;;;;;;;11.50;99.90;;;;;;5114941;28;19915;-74
2022/06/03 08:12:37;;;;;;;;;;;11.60;99.90;;;;;;5114786;28;19968;-74
2022/06/03 08:15:17;;;;;;;;;;;11.70;99.90;;;;;;5114457;28;19915;-74
2022/06/03 08:17:45;;;;;;;;;;;11.70;99.90;;;;;;5114220;28;19911;-74
2022/06/03 08:20:13;;;;;;;;;;;11.80;99.90;;;;;;5114375;28;19912;-77
2022/06/03 08:22:40;;;;;;;;;;;11.80;99.90;;;;;;5026283;28;20273;-76
2022/06/03 08:25:08;;;;;;;;;;;11.80;99.90;;;;;;5033837;28;19921;-76
2022/06/03 08:27:39;;;;;;;;;;;11.80;99.90;;;;;;5065366;28;19909;-76
2022/06/03 08:30:16;;;;;;;;;;;11.90;99.90;;;;;;5033851;28;19913;-78
2022/06/03 08:32:49;;;;;;;;;;;11.90;99.90;;;;;;5033131;28;19959;-75
2022/06/03 08:35:23;;;;;;;;;;;11.90;99.90;;;;;;5033614;28;19913;-76
2022/06/03 08:38:10;;;;;;;;;;;11.90;99.90;;;;;;5033325;28;19931;-75
2022/06/03 08:40:41;;;;;;;;;;;11.90;99.90;;;;;;5029548;28;19913;-75
2022/06/03 08:43:17;;;;;;;;;;;11.90;99.90;;;;;;5033415;28;19912;-73
2022/06/03 08:46:07;;;;;;;;;;;11.90;99.90;;;;;;5033232;28;19909;-74
2022/06/03 08:48:38;;;;;;;;;;;11.90;99.90;;;;;;5030148;28;19913;-76
2022/06/03 08:51:09;;;;;;;;;;;11.90;99.90;;;;;;5033385;28;19963;-74
2022/06/03 08:53:48;;;;;;;;;;;11.90;99.90;;;;;;5033116;28;19971;-74
2022/06/03 08:56:26;;;;;;;;;;;11.90;99.90;;;;;;5033417;28;20261;-73
2022/06/03 08:59:01;;;;;;;;;;;11.90;99.90;;;;;;5033192;28;19949;-73
2022/06/03 09:01:28;;;;;;;;;;;11.90;99.90;;;;;;5032918;28;19913;-75
2022/06/03 09:04:03;;;;;;;;;;;11.90;99.90;;;;;;5033011;28;19909;-74
2022/06/03 09:06:36;;;;;;;;;;;11.80;99.90;;;;;;5034727;28;20314;-74
2022/06/03 09:09:06;;;;;;;;;;;11.90;99.90;;;;;;5034992;28;19917;-73
2022/06/03 09:11:49;;;;;;;;;;;11.80;99.90;;;;;;5034731;28;20379;-74
2022/06/03 09:14:21;;;;;;;;;;;11.90;99.90;;;;;;5035000;28;20054;-73
2022/06/03 09:16:49;;;;;;;;;;;11.90;99.90;;;;;;5035043;28;19910;-74
2022/06/03 09:19:23;;;;;;;;;;;11.90;99.90;;;;;;5034693;28;20291;-74
2022/06/03 09:21:51;;;;;;;;;;;11.80;99.90;;;;;;5034796;28;19913;-74
2022/06/03 09:24:26;;;;;;;;;;;11.80;99.90;;;;;;5035039;28;19909;-74
2022/06/03 09:26:55;;;;;;;;;;;11.80;99.90;;;;;;5034838;28;20391;-75
2022/06/03 09:29:22;;;;;;;;;;;11.80;99.90;;;;;;5034869;28;19916;-74
2022/06/03 09:31:50;;;;;;;;;;;11.70;99.90;;;;;;5034470;28;19932;-73
2022/06/03 09:34:18;;;;;;;;;;;11.70;99.90;;;;;;5066742;28;19941;-73
2022/06/03 09:36:45;;;;;;;;;;;11.70;99.90;;;;;;5034581;28;19909;-73
2022/06/03 09:39:15;;;;;;;;;;;11.70;99.90;;;;;;5034631;28;19921;-74
2022/06/03 09:41:43;;;;;;;;;;;11.60;99.90;;;;;;5034133;28;20356;-75
2022/06/03 09:44:12;;;;;;;;;;;11.50;99.90;;;;;;5033409;28;19909;-75
2022/06/03 09:46:39;;;;;;;;;;;11.40;99.90;;;;;;5034323;28;20265;-75
2022/06/03 09:49:07;;;;;;;;;;;11.30;99.90;;;;;;5034172;28;19909;-76
2022/06/03 09:51:56;;;;;;;;;;;11.10;99.90;;;;;;5033846;28;19909;-75
2022/06/03 09:54:23;;;;;;;;;;;11.00;99.90;;;;;;5034256;28;20016;-75
2022/06/03 09:56:51;;;;;;;;;;;10.90;99.90;;;;;;5033839;28;20356;-75
2022/06/03 09:59:21;;;;;;;;;;;10.80;99.90;;;;;;5034105;28;19923;-75
2022/06/03 10:01:49;;;;;;;;;;;10.80;99.90;;;;;;5033888;28;19909;-75
2022/06/03 10:04:17;;;;;;;;;;;10.80;99.90;;;;;;5033993;28;20310;-76
2022/06/03 10:06:47;;;;;;;;;;;10.80;99.90;;;;;;5034048;28;19909;-75
2022/06/03 10:15:37;;;;;;;;;;;10.90;99.90;;;;;;5034280;28;19956;-75
2022/06/03 10:17:32;;;;;;;;;;;10.90;99.90;;;;;;5033614;28;19910;-75
2022/06/03 10:19:59;;;;;;;;;;;11.00;99.90;;;;;;5033836;28;20360;-75
2022/06/03 10:22:26;;;;;;;;;;;11.00;99.90;;;;;;5033787;28;19913;-75
2022/06/03 10:24:55;;;;;;;;;;;11.00;99.90;;;;;;5033513;28;19909;-75
2022/06/03 10:27:22;;;;;;;;;;;11.00;99.90;;;;;;5033482;28;19909;-75
2022/06/03 10:29:50;;;;;;;;;;;11.00;99.90;;;;;;5033430;28;19909;-76
2022/06/03 10:32:19;;;;;;;;;;;11.00;99.90;;;;;;5033609;28;20052;-75
2022/06/03 10:34:47;;;;;;;;;;;11.10;99.90;;;;;;5033475;28;19909;-75
2022/06/03 10:37:24;;;;;;;;;;;11.10;99.90;;;;;;5033567;28;20375;-75
2022/06/03 10:39:54;;;;;;;;;;;11.10;99.90;;;;;;5033229;28;19917;-76
2022/06/03 10:42:22;;;;;;;;;;;11.10;99.90;;;;;;5033137;28;19915;-76
2022/06/03 10:44:51;;;;;;;;;;;11.10;99.90;;;;;;5033114;28;19944;-75
2022/06/03 10:47:32;;;;;;;;;;;11.10;99.90;;;;;;5033369;28;19909;-75
2022/06/03 10:50:02;;;;;;;;;;;11.10;99.90;;;;;;5033201;28;19909;-76
2022/06/03 11:01:08;;;;;;;;;;;11.10;99.90;;;;;;5033634;28;19971;-74
2022/06/03 11:03:37;;;;;;;;;;;11.20;99.90;;;;;;5033019;28;19916;-75
2022/06/03 11:06:07;;;;;;;;;;;11.20;99.90;;;;;;5033167;28;19996;-74
2022/06/03 11:08:52;;;;;;;;;;;11.20;99.90;;;;;;5033164;28;19911;-75
2022/06/03 11:11:32;;;;;;;;;;;11.20;99.90;;;;;;5033054;28;19956;-74
2022/06/03 11:14:18;;;;;;;;;;;11.20;99.90;;;;;;5033186;28;19909;-75
2022/06/03 11:16:49;;;;;;;;;;;11.20;99.90;;;;;;5033091;28;19909;-75
2022/06/03 11:19:19;;;;;;;;;;;11.30;99.90;;;;;;5033128;28;19918;-74
2022/06/03 11:21:46;;;;;;;;;;;11.30;99.90;;;;;;5032897;28;19909;-75
2022/06/03 11:24:13;;;;;;;;;;;11.30;99.90;;;;;;5033106;28;19916;-75
2022/06/03 11:26:44;;;;;;;;;;;11.30;99.90;;;;;;5032867;28;20364;-74
2022/06/03 11:29:11;;;;;;;;;;;11.40;99.90;;;;;;5033031;28;19915;-76
2022/06/03 11:31:41;;;;;;;;;;;11.40;99.90;;;;;;5032707;28;19952;-75
2022/06/03 11:34:27;;;;;;;;;;;11.50;99.90;;;;;;5033015;28;19948;-74
2022/06/03 11:36:57;;;;;;;;;;;11.50;99.90;;;;;;5033055;28;19917;-75
2022/06/03 11:39:56;;;;;;;;;;;11.50;99.90;;;;;;5032736;28;19978;-75
2022/06/03 11:42:31;;;;;;;;;;;11.50;99.90;;;;;;5020774;28;19910;-75
2022/06/03 11:45:01;;;;;;;;;;;11.50;99.90;;;;;;5032871;28;19909;-76
2022/06/03 11:47:31;;;;;;;;;;;11.50;99.90;;;;;;5032839;28;19909;-76
2022/06/03 11:49:57;;;;;;;;;;;11.60;99.90;;;;;;5032938;28;19910;-76
2022/06/03 11:52:24;;;;;;;;;;;11.50;99.90;;;;;;5032659;28;19917;-74
2022/06/03 11:54:54;;;;;;;;;;;11.60;99.90;;;;;;5032861;28;19913;-74
2022/06/03 11:57:21;;;;;;;;;;;11.50;99.90;;;;;;5032732;28;19932;-75
2022/06/03 11:59:52;;;;;;;;;;;11.60;99.90;;;;;;5032410;28;20390;-76
2022/06/03 12:02:19;;;;;;;;;;;11.60;99.90;;;;;;5032759;28;19917;-74
2022/06/03 12:04:52;;;;;;;;;;;11.60;99.90;;;;;;5032860;28;19909;-74
2022/06/03 12:07:22;;;;;;;;;;;11.60;99.90;;;;;;5033373;28;19910;-74
2022/06/03 12:09:59;;;;;;;;;;;11.60;99.90;;;;;;5036203;28;19909;-75
2022/06/03 12:15:31;;;;;;;;;;;11.60;99.90;;;;;;5035885;28;19917;-75
2022/06/03 12:18:06;;;;;;;;;;;11.60;99.90;;;;;;5036017;28;20280;-75
2022/06/03 12:20:33;;;;;;;;;;;11.60;99.90;;;;;;5036026;28;19974;-75
2022/06/03 12:23:20;;;;;;;;;;;11.70;99.90;;;;;;5036150;28;19959;-75
2022/06/03 12:25:53;;;;;;;;;;;11.60;99.90;;;;;;5031944;28;20300;-75
2022/06/03 12:28:24;;;;;;;;;;;11.60;99.90;;;;;;5036048;28;20437;-75
2022/06/03 12:30:55;;;;;;;;;;;11.60;99.90;;;;;;5035924;28;19913;-75
2022/06/03 12:33:27;;;;;;;;;;;11.60;99.90;;;;;;5036004;28;20004;-75
2022/06/03 12:35:56;;;;;;;;;;;11.70;99.90;;;;;;5035709;28;19954;-75
2022/06/03 12:38:23;;;;;;;;;;;11.70;99.90;;;;;;5035811;28;19913;-75
2022/06/03 12:40:52;;;;;;;;;;;11.70;99.90;;;;;;5035615;28;19909;-75
2022/06/03 12:43:30;;;;;;;;;;;11.70;99.90;;;;;;5035771;28;19909;-75
2022/06/03 12:46:02;;;;;;;;;;;11.60;99.90;;;;;;5035642;28;19984;-75
2022/06/03 12:48:46;;;;;;;;;;;11.60;99.90;;;;;;5035672;28;19913;-75
2022/06/03 12:51:34;;;;;;;;;;;11.60;99.90;;;;;;5035710;28;19909;-74
2022/06/03 12:54:14;;;;;;;;;;;11.60;99.90;;;;;;5035453;28;19921;-74
2022/06/03 12:57:01;;;;;;;;;;;11.50;99.90;;;;;;5035308;28;20486;-74
2022/06/03 12:59:30;;;;;;;;;;;11.60;99.90;;;;;;5024256;28;20420;-74
2022/06/03 13:02:01;;;;;;;;;;;11.60;99.90;;;;;;5035376;28;20368;-74
2022/06/03 13:04:48;;;;;;;;;;;11.60;99.90;;;;;;5035344;28;19928;-75
2022/06/03 13:07:16;;;;;;;;;;;11.60;99.90;;;;;;5035254;28;19910;-75
2022/06/03 13:10:01;;;;;;;;;;;11.60;99.90;;;;;;5035140;28;19910;-75
2022/06/03 13:12:44;;;;;;;;;;;11.60;99.90;;;;;;5035102;28;19909;-74
2022/06/03 13:15:23;;;;;;;;;;;11.60;99.90;;;;;;5035072;28;20364;-75
2022/06/03 13:18:13;;;;;;;;;;;11.60;99.90;;;;;;5034932;28;19917;-74
2022/06/03 13:20:42;;;;;;;;;;;11.60;99.90;;;;;;5035101;28;19917;-75
2022/06/03 13:23:27;;;;;;;;;;;11.60;99.90;;;;;;5034831;28;19909;-75
2022/06/03 13:25:57;;;;;;;;;;;11.60;99.90;;;;;;5034712;28;19959;-75
2022/06/03 13:28:33;;;;;;;;;;;11.60;99.90;;;;;;5034833;28;19917;-75
2022/06/03 13:31:06;;;;;;;;;;;11.60;99.90;;;;;;5034898;28;20286;-74
2022/06/03 13:33:52;;;;;;;;;;;11.60;99.90;;;;;;5034582;28;20267;-74
2022/06/03 13:36:30;;;;;;;;;;;11.60;99.90;;;;;;5034718;28;19913;-75
2022/06/03 13:38:57;;;;;;;;;;;11.60;99.90;;;;;;5034646;28;19979;-75
2022/06/03 13:44:16;;;;;;;;;;;11.60;99.90;;;;;;5034679;28;19964;-74
2022/06/03 13:46:46;;;;;;;;;;;11.60;99.90;;;;;;5034604;28;20359;-75
2022/06/03 13:49:27;;;;;;;;;;;11.60;99.90;;;;;;5000573;28;19953;-74
2022/06/03 13:51:55;;;;;;;;;;;11.70;99.90;;;;;;4994342;28;19924;-75
2022/06/03 13:54:34;;;;;;;;;;;11.60;99.90;;;;;;4994874;28;19917;-74
2022/06/03 13:57:04;;;;;;;;;;;11.60;99.90;;;;;;4994814;28;19914;-75
2022/06/03 13:59:32;;;;;;;;;;;11.60;99.90;;;;;;4994685;28;19925;-75
2022/06/03 14:02:00;;;;;;;;;;;11.60;99.90;;;;;;4994902;28;19909;-75
2022/06/03 14:04:29;;;;;;;;;;;11.60;99.90;;;;;;4994756;28;20250;-75
2022/06/03 14:07:01;;;;;;;;;;;11.60;99.90;;;;;;4994239;28;19914;-75
2022/06/03 14:09:53;;;;;;;;;;;11.60;99.90;;;;;;4994628;28;19941;-74
2022/06/03 14:12:32;;;;;;;;;;;11.60;99.90;;;;;;5020562;28;19914;-75
2022/06/03 14:15:05;;;;;;;;;;;11.50;99.90;;;;;;4994667;28;19910;-75
2022/06/03 14:17:47;;;;;;;;;;;11.50;99.90;;;;;;4994225;28;19949;-75
2022/06/03 14:20:20;;;;;;;;;;;11.50;99.90;;;;;;4994176;28;19914;-75
2022/06/03 14:22:52;;;;;;;;;;;11.40;99.90;;;;;;4994601;28;19910;-75
2022/06/03 14:25:19;;;;;;;;;;;11.40;99.90;;;;;;4994470;28;19922;-75
2022/06/03 14:28:11;;;;;;;;;;;11.40;99.90;;;;;;5003701;28;20332;-75
2022/06/03 14:30:38;;;;;;;;;;;11.40;99.90;;;;;;4992943;28;19914;-75
2022/06/03 14:33:06;;;;;;;;;;;11.30;99.90;;;;;;4994460;28;20281;-75
2022/06/03 14:35:42;;;;;;;;;;;11.30;99.90;;;;;;4994287;28;19940;-75
2022/06/03 14:38:11;;;;;;;;;;;11.30;99.90;;;;;;4994226;28;19925;-75
2022/06/03 14:40:40;;;;;;;;;;;11.40;99.90;;;;;;4994259;28;19910;-75
2022/06/03 14:43:08;;;;;;;;;;;11.30;99.90;;;;;;4994333;28;19979;-75
2022/06/03 14:45:38;;;;;;;;;;;11.30;99.90;;;;;;5021623;28;19913;-75
2022/06/03 14:48:07;;;;;;;;;;;11.40;99.90;;;;;;5012566;28;19983;-75
2022/06/03 14:50:36;;;;;;;;;;;11.30;99.90;;;;;;5013062;28;20364;-75
2022/06/03 14:53:18;;;;;;;;;;;11.30;99.90;;;;;;5013543;28;19921;-75
2022/06/03 14:55:46;;;;;;;;;;;11.40;99.90;;;;;;5013459;28;19916;-75
2022/06/03 14:58:16;;;;;;;;;;;11.60;99.90;;;;;;5013513;28;20406;-75
2022/06/03 15:00:46;;;;;;;;;;;11.60;99.90;;;;;;5013770;28;19909;-75
2022/06/03 15:03:24;;;;;;;;;;;11.60;99.90;;;;;;5013671;28;19909;-75
2022/06/03 15:05:51;;;;;;;;;;;11.60;99.90;;;;;;5013374;28;19909;-75
2022/06/03 15:08:20;;;;;;;;;;;11.60;99.90;;;;;;5013589;28;19937;-75
2022/06/03 15:10:51;;;;;;;;;;;11.60;99.90;;;;;;5013496;28;20397;-75
2022/06/03 15:13:23;;;;;;;;;;;11.60;99.90;;;;;;5013567;28;19956;-75
2022/06/03 15:15:50;;;;;;;;;;;11.60;99.90;;;;;;5012294;28;20597;-75
2022/06/03 15:18:18;;;;;;;;;;;11.60;99.90;;;;;;5012482;28;19917;-75
2022/06/03 15:21:03;;;;;;;;;;;11.50;99.90;;;;;;5013347;28;19909;-75
2022/06/03 15:23:30;;;;;;;;;;;11.50;99.90;;;;;;5013292;28;19914;-75
2022/06/03 15:25:58;;;;;;;;;;;11.40;99.90;;;;;;5013205;28;19909;-76
2022/06/03 15:28:26;;;;;;;;;;;11.30;99.90;;;;;;5013438;28;19909;-76
2022/06/03 15:30:58;;;;;;;;;;;11.20;99.90;;;;;;5013354;28;20365;-76